x

Columbia River Bar - 20nm West Of Columbia River Mouth (46029) Wave Buoy

1:50pm - Sat 23rd Jul 2016 All times are PDT. -7 hours from GMT.

  • Sig Wave height 3.3ft
  • Swell Direction
  • Peak Period 8s
  • Average Period 5s
  • Wind
    9mph, 11mph gusts
  • Sea Temp 64°f
  • Air Temp 62°f
  • Sea Pressure 1026.2mb
  • Columbia River Bar - 20nm West Of Columbia River Mouth
  • Columbia River Bar - 20nm West Of Columbia River Mouth

More Historic Weather Station data

Upgrade to MSW Pro to gain access to the past 30 days of data for over 8000 Wavebouys and Weather Stations around the globe.

Join Pro

Comparision Forecast

View Surf forecast
   
Sat 07/23 1:50pm 3.5ft 8s 5s 9 11 mph 1026.2mb 64f 62f
12:50pm 3ft 8s 5s 13 16 mph 1026.3mb 63f 61f
11:50am 3ft 8s 6s 13 16 mph 1026.3mb 62f 62f
10:50am 3.5ft 9s 5s 9
mph
1026.5mb 62f 62f
9:50am 3.5ft 8s 5s 11 13 mph 1026.3mb 62f 61f
8:50am 3ft 8s  -  13 18 mph 1026.2mb 62f 60f
7:50am 3.5ft 9s 6s 7 9 mph 1026mb 62f 61f
6:50am 3.5ft 15s 5s 16 18 mph 1025.9mb 62f 60f
5:50am 3.5ft 15s 6s 13 16 mph 1025.5mb 62f 61f
4:50am 3ft 8s 6s 9 11 mph 1025.3mb 62f 61f
3:50am 3ft 15s 6s 9
mph
1025.4mb 62f 61f
2:50am 3ft 8s 6s 7 9 mph 1025.6mb 62f 61f
1:50am 3ft 15s 7s 7 9 mph 1026.2mb 63f 61f
12:50am 3ft 9s 6s 7 9 mph 1026.5mb 64f 62f
Fri 07/22 11:50pm 3ft 9s 6s 13 16 mph 1026.9mb 64f 61f
10:50pm 3.5ft 8s 6s 9 11 mph 1027.1mb 63f 61f
9:50pm 3.5ft 8s 6s 13 18 mph 1027.1mb 63f 60f
8:50pm 3.5ft 8s 6s  -  2 mph 1027.1mb 63f 60f
7:50pm 3.5ft 8s 6s 7 11 mph 1027.1mb 63f 61f
6:50pm 3.5ft 9s 7s 7 9 mph 1026.8mb 64f 62f
5:50pm 3.5ft 8s 6s 7 9 mph 1027mb 64f 62f
4:50pm 3.5ft 15s 6s 7 9 mph 1027.1mb 64f 62f
3:50pm 3.5ft 9s 6s 7
mph
1027.2mb 63f 62f
2:50pm 3.5ft 8s 6s 4 7 mph 1027.4mb 63f 61f
1:50pm 3.5ft 15s 6s 13 16 mph 1027.2mb 63f 60f
12:50pm 4ft 8s 6s 16 18 mph 1026.7mb 63f 60f
10:50am 3.5ft 9s 6s 9 11 mph 1026.1mb 62f 61f
9:50am 4ft 8s 6s 9
mph
1025.9mb 61f 60f
8:50am 3.5ft 8s 5s 11 13 mph 1025.6mb 61f 60f
7:50am 3.5ft 8s 6s 9 11 mph 1025.2mb 62f 61f
6:50am 3.5ft 8s 6s 9 11 mph 1024.5mb 62f 61f
5:50am 3.5ft 8s 6s 11 13 mph 1023.8mb 62f 61f
4:50am 3.5ft 9s 6s 11 13 mph 1023.2mb 62f 61f
3:50am 3.5ft 8s 6s 11 13 mph 1023mb 62f 61f
2:50am 4ft 8s 6s 9 11 mph 1023.2mb 61f 59f
1:50am 3.5ft 9s 6s 13 18 mph 1023mb 62f 61f
12:50am 3.5ft 8s 6s 9 11 mph 1023mb 62f 62f
Thu 07/21 11:50pm 3.5ft 15s 6s 11 13 mph 1022.7mb 62f 62f
10:50pm 4.5ft 9s 6s 13 16 mph 1022.3mb 62f 62f
9:50pm 3.5ft 9s 5s 16 18 mph 1021.7mb 63f 63f
8:50pm 3.5ft 8s 5s 13 16 mph 1021.4mb 63f 63f
7:50pm 3.5ft 8s 6s 9 11 mph 1021.4mb 64f 63f
6:50pm 3.5ft 8s 5s 13 20 mph 1020.5mb 64f 63f
5:50pm 3.5ft 8s 6s 11 13 mph 1020.8mb 64f 63f
4:50pm 3.5ft 8s 6s 9 11 mph 1020.6mb 64f 63f
3:50pm 4ft 9s 6s 11 13 mph 1020.1mb 64f 62f
2:50pm 3.5ft 9s 6s 13 16 mph 1019.5mb 64f 62f
1:50pm 3.5ft 9s 6s 13 16 mph 1019mb 63f 62f
12:50pm 3.5ft 9s 6s 13 18 mph 1019.1mb 63f 62f
11:50am 4ft 9s 6s 11 13 mph 1019.2mb 63f 61f
10:50am 4ft 8s 6s 11 13 mph 1018.8mb 62f 61f
9:50am 4ft 9s 6s 13 16 mph 1018.8mb 61f 61f
8:50am 4ft 9s 5s 13 16 mph 1018.8mb 62f 61f
7:50am 3.5ft 9s 6s 13 16 mph 1018.6mb 62f 61f
6:50am 3.5ft 9s 5s 13 18 mph 1018.5mb 62f 61f
5:50am 3.5ft 8s 5s 13 16 mph 1018.5mb 62f 61f
4:50am 4ft 8s 6s 13 16 mph 1018.5mb 62f 61f
3:50am 3.5ft 8s 6s 13 16 mph 1018.5mb 62f 61f
2:50am 3.5ft 8s 6s 13 16 mph 1018.6mb 62f 61f
1:50am 4ft 8s 7s 13 16 mph 1018.6mb 62f 61f
12:50am 3.5ft 15s 6s 13 16 mph 1019.1mb 64f 61f
Wed 07/20 11:50pm 3.5ft 15s 6s 13 16 mph 1019mb 64f 62f
10:50pm 3.5ft 10s 6s 13 16 mph 1019.4mb 63f 62f
9:50pm 3ft 15s 6s 13 16 mph 1019.5mb 63f 62f
8:50pm 3ft 15s 7s 11 16 mph 1019.3mb 64f 62f
7:50pm 3ft 15s 7s 11 13 mph 1019.6mb 63f 63f
6:50pm 3ft 8s 7s 11 13 mph 1019.8mb 63f 63f
5:50pm 3.5ft 15s 7s 9 11 mph 1020.3mb 63f 63f
4:50pm 3ft 15s 7s 9 11 mph 1020.5mb 64f 63f
3:50pm 3.5ft 8s 7s 7 9 mph 1020.7mb 64f 63f
2:50pm 3.5ft 16s 7s 4
mph
1021.1mb 64f 63f
1:50pm 3.5ft 16s 7s 2 4 mph 1021.4mb 64f 63f
12:50pm 3.5ft 11s 7s 2 4 mph 1021.3mb 64f 63f
11:50am 3.5ft 8s 7s 2
mph
1021.5mb 63f 63f
10:50am 3.5ft 15s 7s 2 4 mph 1021.5mb 62f 61f
9:50am 3ft 15s 7s 2 4 mph 1021.5mb 62f 61f
8:50am 3ft 16s 7s 4
mph
1021.2mb 62f 60f
7:50am 3ft 16s 7s 4
mph
1021mb 61f 60f
6:50am 3ft 15s 7s 7
mph
1020.8mb 61f 60f
5:50am 3ft 15s 7s 7
mph
1020.4mb 61f 60f
4:50am 2.5ft 16s 7s  -  2 mph 1020.3mb 61f 59f
3:50am 3ft 15s 7s 7
mph
1020.2mb 61f 60f
2:50am 3.5ft 16s 7s 2 4 mph 1019.9mb 61f 61f
1:50am 3.5ft 15s 6s 7
mph
1020mb 61f 61f
12:50am 3.5ft 16s 6s 7 9 mph 1020.1mb 61f 61f
Tue 07/19 11:50pm 3.5ft 16s 6s 7
mph
1020.2mb 62f 61f
10:50pm 3.5ft 8s 6s 9
mph
1020.3mb 62f 61f
9:50pm 3.5ft 8s 6s 7 9 mph 1020.1mb 62f 61f